sensor_id;sensor_type;location;lat;lon;timestamp;P1;durP1;ratioP1;P2;durP2;ratioP2
24145;SDS011;12308;50.948;4.706;2023-02-22T00:01:30;127.00;;;35.20;;
24145;SDS011;12308;50.948;4.706;2023-02-22T00:04:02;128.95;;;37.95;;
24145;SDS011;12308;50.948;4.706;2023-02-22T00:06:30;109.95;;;35.53;;
24145;SDS011;12308;50.948;4.706;2023-02-22T00:08:57;140.57;;;37.95;;
24145;SDS011;12308;50.948;4.706;2023-02-22T00:11:23;106.75;;;35.13;;
24145;SDS011;12308;50.948;4.706;2023-02-22T00:13:49;142.60;;;34.55;;
24145;SDS011;12308;50.948;4.706;2023-02-22T00:16:16;121.78;;;37.60;;
24145;SDS011;12308;50.948;4.706;2023-02-22T00:18:44;125.70;;;38.33;;
24145;SDS011;12308;50.948;4.706;2023-02-22T00:21:11;114.15;;;35.63;;
24145;SDS011;12308;50.948;4.706;2023-02-22T00:23:41;105.90;;;37.50;;
24145;SDS011;12308;50.948;4.706;2023-02-22T00:26:12;126.45;;;35.90;;
24145;SDS011;12308;50.948;4.706;2023-02-22T00:28:43;126.60;;;36.40;;
24145;SDS011;12308;50.948;4.706;2023-02-22T00:31:09;132.88;;;37.45;;
24145;SDS011;12308;50.948;4.706;2023-02-22T00:33:37;150.57;;;37.65;;
24145;SDS011;12308;50.948;4.706;2023-02-22T00:36:03;168.50;;;39.13;;
24145;SDS011;12308;50.948;4.706;2023-02-22T00:38:28;121.88;;;36.83;;
24145;SDS011;12308;50.948;4.706;2023-02-22T00:40:54;153.43;;;38.30;;
24145;SDS011;12308;50.948;4.706;2023-02-22T00:43:20;213.65;;;38.00;;
24145;SDS011;12308;50.948;4.706;2023-02-22T00:45:45;134.15;;;36.80;;
24145;SDS011;12308;50.948;4.706;2023-02-22T00:48:11;141.82;;;37.50;;
24145;SDS011;12308;50.948;4.706;2023-02-22T00:50:37;192.45;;;37.15;;
24145;SDS011;12308;50.948;4.706;2023-02-22T00:53:03;137.90;;;36.60;;
24145;SDS011;12308;50.948;4.706;2023-02-22T00:55:30;150.65;;;36.85;;
24145;SDS011;12308;50.948;4.706;2023-02-22T00:57:58;136.45;;;36.83;;
24145;SDS011;12308;50.948;4.706;2023-02-22T01:02:51;168.07;;;35.90;;
24145;SDS011;12308;50.948;4.706;2023-02-22T01:05:20;184.20;;;36.55;;
24145;SDS011;12308;50.948;4.706;2023-02-22T01:07:48;270.67;;;38.03;;
24145;SDS011;12308;50.948;4.706;2023-02-22T01:10:14;160.65;;;35.92;;
24145;SDS011;12308;50.948;4.706;2023-02-22T01:12:43;170.30;;;34.97;;
24145;SDS011;12308;50.948;4.706;2023-02-22T01:15:10;132.38;;;35.70;;
24145;SDS011;12308;50.948;4.706;2023-02-22T01:17:36;151.07;;;36.30;;
24145;SDS011;12308;50.948;4.706;2023-02-22T01:20:04;286.80;;;38.42;;
24145;SDS011;12308;50.948;4.706;2023-02-22T01:22:34;186.52;;;35.72;;
24145;SDS011;12308;50.948;4.706;2023-02-22T01:25:01;120.55;;;36.30;;
24145;SDS011;12308;50.948;4.706;2023-02-22T01:27:27;124.97;;;35.95;;
24145;SDS011;12308;50.948;4.706;2023-02-22T01:29:53;137.88;;;36.17;;
24145;SDS011;12308;50.948;4.706;2023-02-22T01:32:19;171.65;;;33.85;;
24145;SDS011;12308;50.948;4.706;2023-02-22T01:34:44;127.53;;;35.20;;
24145;SDS011;12308;50.948;4.706;2023-02-22T01:37:10;146.55;;;35.40;;
24145;SDS011;12308;50.948;4.706;2023-02-22T01:39:36;124.18;;;34.80;;
24145;SDS011;12308;50.948;4.706;2023-02-22T01:42:01;177.82;;;36.92;;
24145;SDS011;12308;50.948;4.706;2023-02-22T01:44:32;141.82;;;32.75;;
24145;SDS011;12308;50.948;4.706;2023-02-22T01:47:00;148.93;;;34.22;;
24145;SDS011;12308;50.948;4.706;2023-02-22T01:49:49;156.02;;;33.28;;
24145;SDS011;12308;50.948;4.706;2023-02-22T01:52:15;142.98;;;34.05;;
24145;SDS011;12308;50.948;4.706;2023-02-22T01:54:45;145.80;;;33.47;;
24145;SDS011;12308;50.948;4.706;2023-02-22T01:59:52;160.40;;;32.88;;
24145;SDS011;12308;50.948;4.706;2023-02-22T02:02:23;91.75;;;31.98;;
24145;SDS011;12308;50.948;4.706;2023-02-22T02:04:50;146.32;;;32.03;;
24145;SDS011;12308;50.948;4.706;2023-02-22T02:07:19;110.57;;;30.40;;
24145;SDS011;12308;50.948;4.706;2023-02-22T02:09:51;155.70;;;30.35;;
24145;SDS011;12308;50.948;4.706;2023-02-22T02:12:23;127.85;;;30.30;;
24145;SDS011;12308;50.948;4.706;2023-02-22T02:14:50;141.75;;;29.08;;
24145;SDS011;12308;50.948;4.706;2023-02-22T02:17:16;173.90;;;35.47;;
24145;SDS011;12308;50.948;4.706;2023-02-22T02:20:04;93.82;;;30.13;;
24145;SDS011;12308;50.948;4.706;2023-02-22T02:22:57;98.63;;;29.65;;
24145;SDS011;12308;50.948;4.706;2023-02-22T02:25:51;122.72;;;28.25;;
24145;SDS011;12308;50.948;4.706;2023-02-22T02:33:55;102.30;;;28.95;;
24145;SDS011;12308;50.948;4.706;2023-02-22T02:36:46;111.50;;;30.58;;
24145;SDS011;12308;50.948;4.706;2023-02-22T02:42:15;94.28;;;28.83;;
24145;SDS011;12308;50.948;4.706;2023-02-22T02:47:16;111.53;;;30.27;;
24145;SDS011;12308;50.948;4.706;2023-02-22T02:52:38;87.35;;;28.42;;
24145;SDS011;12308;50.948;4.706;2023-02-22T02:55:05;77.85;;;28.23;;
24145;SDS011;12308;50.948;4.706;2023-02-22T02:57:33;72.22;;;25.70;;
24145;SDS011;12308;50.948;4.706;2023-02-22T02:59:58;83.80;;;25.65;;
24145;SDS011;12308;50.948;4.706;2023-02-22T03:08:37;99.28;;;26.85;;
24145;SDS011;12308;50.948;4.706;2023-02-22T03:11:09;108.10;;;28.02;;
24145;SDS011;12308;50.948;4.706;2023-02-22T03:13:42;100.45;;;27.13;;
24145;SDS011;12308;50.948;4.706;2023-02-22T03:18:55;67.50;;;25.23;;
24145;SDS011;12308;50.948;4.706;2023-02-22T03:27:27;61.58;;;25.70;;
24145;SDS011;12308;50.948;4.706;2023-02-22T03:30:17;66.45;;;25.15;;
24145;SDS011;12308;50.948;4.706;2023-02-22T03:32:52;68.35;;;24.70;;
24145;SDS011;12308;50.948;4.706;2023-02-22T03:37:52;84.75;;;24.45;;
24145;SDS011;12308;50.948;4.706;2023-02-22T03:40:22;68.43;;;26.95;;
24145;SDS011;12308;50.948;4.706;2023-02-22T03:42:56;65.60;;;25.05;;
24145;SDS011;12308;50.948;4.706;2023-02-22T03:45:34;62.40;;;25.92;;
24145;SDS011;12308;50.948;4.706;2023-02-22T03:48:07;57.78;;;26.13;;
24145;SDS011;12308;50.948;4.706;2023-02-22T03:50:40;50.40;;;23.85;;
24145;SDS011;12308;50.948;4.706;2023-02-22T03:53:06;60.97;;;24.52;;
24145;SDS011;12308;50.948;4.706;2023-02-22T03:55:32;67.93;;;25.67;;
24145;SDS011;12308;50.948;4.706;2023-02-22T03:57:59;46.28;;;22.60;;
24145;SDS011;12308;50.948;4.706;2023-02-22T04:00:30;47.35;;;22.60;;
24145;SDS011;12308;50.948;4.706;2023-02-22T04:02:57;45.75;;;23.27;;
24145;SDS011;12308;50.948;4.706;2023-02-22T04:05:23;47.75;;;21.58;;
24145;SDS011;12308;50.948;4.706;2023-02-22T04:07:53;43.58;;;22.08;;
24145;SDS011;12308;50.948;4.706;2023-02-22T04:10:20;47.65;;;21.02;;
24145;SDS011;12308;50.948;4.706;2023-02-22T04:12:46;44.10;;;21.30;;
24145;SDS011;12308;50.948;4.706;2023-02-22T04:15:13;48.92;;;21.38;;
24145;SDS011;12308;50.948;4.706;2023-02-22T04:17:41;43.72;;;21.67;;
24145;SDS011;12308;50.948;4.706;2023-02-22T04:20:07;42.22;;;20.35;;
24145;SDS011;12308;50.948;4.706;2023-02-22T04:22:33;46.28;;;21.40;;
24145;SDS011;12308;50.948;4.706;2023-02-22T04:24:58;52.45;;;20.80;;
24145;SDS011;12308;50.948;4.706;2023-02-22T04:27:24;44.30;;;20.75;;
24145;SDS011;12308;50.948;4.706;2023-02-22T04:29:50;47.40;;;20.60;;
24145;SDS011;12308;50.948;4.706;2023-02-22T04:32:15;45.08;;;20.63;;
24145;SDS011;12308;50.948;4.706;2023-02-22T04:34:41;46.35;;;21.38;;
24145;SDS011;12308;50.948;4.706;2023-02-22T04:37:07;46.08;;;21.98;;
24145;SDS011;12308;50.948;4.706;2023-02-22T04:39:34;51.83;;;21.50;;
24145;SDS011;12308;50.948;4.706;2023-02-22T04:42:00;51.05;;;21.58;;
24145;SDS011;12308;50.948;4.706;2023-02-22T04:44:25;45.97;;;21.42;;
24145;SDS011;12308;50.948;4.706;2023-02-22T04:46:51;45.05;;;21.33;;
24145;SDS011;12308;50.948;4.706;2023-02-22T04:49:16;40.85;;;20.95;;
24145;SDS011;12308;50.948;4.706;2023-02-22T04:51:42;43.80;;;20.10;;
24145;SDS011;12308;50.948;4.706;2023-02-22T04:54:08;42.90;;;21.13;;
24145;SDS011;12308;50.948;4.706;2023-02-22T04:56:33;42.95;;;21.17;;
24145;SDS011;12308;50.948;4.706;2023-02-22T04:58:59;44.67;;;20.88;;
24145;SDS011;12308;50.948;4.706;2023-02-22T05:01:25;43.80;;;21.77;;
24145;SDS011;12308;50.948;4.706;2023-02-22T05:03:55;38.25;;;20.23;;
24145;SDS011;12308;50.948;4.706;2023-02-22T05:06:21;38.67;;;19.70;;
24145;SDS011;12308;50.948;4.706;2023-02-22T05:08:47;38.17;;;19.25;;
24145;SDS011;12308;50.948;4.706;2023-02-22T05:11:12;37.40;;;18.73;;
24145;SDS011;12308;50.948;4.706;2023-02-22T05:13:38;39.40;;;19.90;;
24145;SDS011;12308;50.948;4.706;2023-02-22T05:16:04;43.20;;;20.00;;
24145;SDS011;12308;50.948;4.706;2023-02-22T05:18:30;42.13;;;21.15;;
24145;SDS011;12308;50.948;4.706;2023-02-22T05:20:55;40.78;;;20.25;;
24145;SDS011;12308;50.948;4.706;2023-02-22T05:23:21;41.67;;;20.45;;
24145;SDS011;12308;50.948;4.706;2023-02-22T05:25:47;37.28;;;19.67;;
24145;SDS011;12308;50.948;4.706;2023-02-22T05:28:13;44.65;;;20.15;;
24145;SDS011;12308;50.948;4.706;2023-02-22T05:30:39;41.20;;;21.08;;
24145;SDS011;12308;50.948;4.706;2023-02-22T05:33:06;38.45;;;19.98;;
24145;SDS011;12308;50.948;4.706;2023-02-22T05:35:33;35.45;;;19.05;;
24145;SDS011;12308;50.948;4.706;2023-02-22T05:37:58;39.20;;;19.20;;
24145;SDS011;12308;50.948;4.706;2023-02-22T05:40:27;37.20;;;19.67;;
24145;SDS011;12308;50.948;4.706;2023-02-22T05:42:54;35.45;;;18.85;;
24145;SDS011;12308;50.948;4.706;2023-02-22T05:45:21;39.63;;;19.77;;
24145;SDS011;12308;50.948;4.706;2023-02-22T05:47:48;36.65;;;19.15;;
24145;SDS011;12308;50.948;4.706;2023-02-22T05:50:15;32.95;;;18.23;;
24145;SDS011;12308;50.948;4.706;2023-02-22T05:52:41;41.25;;;19.20;;
24145;SDS011;12308;50.948;4.706;2023-02-22T05:55:07;34.65;;;18.13;;
24145;SDS011;12308;50.948;4.706;2023-02-22T05:57:35;33.70;;;17.38;;
24145;SDS011;12308;50.948;4.706;2023-02-22T06:00:02;36.85;;;19.10;;
24145;SDS011;12308;50.948;4.706;2023-02-22T06:02:31;34.80;;;18.52;;
24145;SDS011;12308;50.948;4.706;2023-02-22T06:04:57;36.92;;;18.63;;
24145;SDS011;12308;50.948;4.706;2023-02-22T06:07:23;35.78;;;18.05;;
24145;SDS011;12308;50.948;4.706;2023-02-22T06:09:49;37.30;;;19.17;;
24145;SDS011;12308;50.948;4.706;2023-02-22T06:12:15;34.88;;;17.80;;
24145;SDS011;12308;50.948;4.706;2023-02-22T06:14:41;34.92;;;18.52;;
24145;SDS011;12308;50.948;4.706;2023-02-22T06:17:10;35.63;;;18.10;;
24145;SDS011;12308;50.948;4.706;2023-02-22T06:19:37;36.20;;;17.05;;
24145;SDS011;12308;50.948;4.706;2023-02-22T06:22:04;36.35;;;17.85;;
24145;SDS011;12308;50.948;4.706;2023-02-22T06:24:30;31.95;;;16.70;;
24145;SDS011;12308;50.948;4.706;2023-02-22T06:26:57;34.20;;;17.48;;
24145;SDS011;12308;50.948;4.706;2023-02-22T06:29:24;36.08;;;18.15;;
24145;SDS011;12308;50.948;4.706;2023-02-22T06:31:51;39.78;;;19.27;;
24145;SDS011;12308;50.948;4.706;2023-02-22T06:34:16;33.33;;;17.30;;
24145;SDS011;12308;50.948;4.706;2023-02-22T06:36:43;32.72;;;17.92;;
24145;SDS011;12308;50.948;4.706;2023-02-22T06:39:12;34.83;;;18.13;;
24145;SDS011;12308;50.948;4.706;2023-02-22T06:41:39;35.08;;;18.70;;
24145;SDS011;12308;50.948;4.706;2023-02-22T06:44:06;35.28;;;18.10;;
24145;SDS011;12308;50.948;4.706;2023-02-22T06:46:32;31.88;;;16.98;;
24145;SDS011;12308;50.948;4.706;2023-02-22T06:48:59;32.10;;;17.15;;
24145;SDS011;12308;50.948;4.706;2023-02-22T06:51:27;34.45;;;17.65;;
24145;SDS011;12308;50.948;4.706;2023-02-22T06:53:54;33.90;;;18.40;;
24145;SDS011;12308;50.948;4.706;2023-02-22T06:56:20;32.08;;;16.80;;
24145;SDS011;12308;50.948;4.706;2023-02-22T06:58:45;32.67;;;17.08;;
24145;SDS011;12308;50.948;4.706;2023-02-22T07:01:11;37.08;;;17.88;;
24145;SDS011;12308;50.948;4.706;2023-02-22T07:03:37;31.38;;;16.42;;
24145;SDS011;12308;50.948;4.706;2023-02-22T07:06:03;32.40;;;17.33;;
24145;SDS011;12308;50.948;4.706;2023-02-22T07:08:30;30.23;;;15.65;;
24145;SDS011;12308;50.948;4.706;2023-02-22T07:10:56;32.08;;;16.25;;
24145;SDS011;12308;50.948;4.706;2023-02-22T07:13:21;30.02;;;16.08;;
24145;SDS011;12308;50.948;4.706;2023-02-22T07:15:47;32.22;;;17.92;;
24145;SDS011;12308;50.948;4.706;2023-02-22T07:18:12;31.60;;;17.75;;
24145;SDS011;12308;50.948;4.706;2023-02-22T07:20:40;34.53;;;17.58;;
24145;SDS011;12308;50.948;4.706;2023-02-22T07:23:06;33.25;;;17.05;;
24145;SDS011;12308;50.948;4.706;2023-02-22T07:25:32;32.85;;;17.23;;
24145;SDS011;12308;50.948;4.706;2023-02-22T07:27:57;32.15;;;17.08;;
24145;SDS011;12308;50.948;4.706;2023-02-22T07:30:24;37.08;;;19.42;;
24145;SDS011;12308;50.948;4.706;2023-02-22T07:32:54;34.42;;;18.80;;
24145;SDS011;12308;50.948;4.706;2023-02-22T07:35:25;34.83;;;18.33;;
24145;SDS011;12308;50.948;4.706;2023-02-22T07:37:53;35.03;;;18.98;;
24145;SDS011;12308;50.948;4.706;2023-02-22T07:40:19;33.05;;;18.05;;
24145;SDS011;12308;50.948;4.706;2023-02-22T07:42:52;32.33;;;18.25;;
24145;SDS011;12308;50.948;4.706;2023-02-22T07:45:19;32.35;;;17.17;;
24145;SDS011;12308;50.948;4.706;2023-02-22T07:47:46;33.85;;;17.63;;
24145;SDS011;12308;50.948;4.706;2023-02-22T07:50:13;33.25;;;17.17;;
24145;SDS011;12308;50.948;4.706;2023-02-22T07:52:39;28.73;;;16.13;;
24145;SDS011;12308;50.948;4.706;2023-02-22T07:55:10;30.00;;;16.85;;
24145;SDS011;12308;50.948;4.706;2023-02-22T07:57:37;29.92;;;15.77;;
24145;SDS011;12308;50.948;4.706;2023-02-22T08:00:03;32.28;;;18.27;;
24145;SDS011;12308;50.948;4.706;2023-02-22T08:02:29;37.45;;;20.20;;
24145;SDS011;12308;50.948;4.706;2023-02-22T08:04:54;29.85;;;17.02;;
24145;SDS011;12308;50.948;4.706;2023-02-22T08:07:20;28.83;;;16.08;;
24145;SDS011;12308;50.948;4.706;2023-02-22T08:09:46;34.88;;;17.38;;
24145;SDS011;12308;50.948;4.706;2023-02-22T08:12:11;27.17;;;15.55;;
24145;SDS011;12308;50.948;4.706;2023-02-22T08:14:37;28.10;;;16.70;;
24145;SDS011;12308;50.948;4.706;2023-02-22T08:17:02;30.60;;;16.73;;
24145;SDS011;12308;50.948;4.706;2023-02-22T08:19:28;31.52;;;17.08;;
24145;SDS011;12308;50.948;4.706;2023-02-22T08:21:53;32.10;;;17.13;;
24145;SDS011;12308;50.948;4.706;2023-02-22T08:24:19;28.10;;;16.52;;
24145;SDS011;12308;50.948;4.706;2023-02-22T08:26:45;30.65;;;16.67;;
24145;SDS011;12308;50.948;4.706;2023-02-22T08:29:11;27.88;;;17.00;;
24145;SDS011;12308;50.948;4.706;2023-02-22T08:31:38;27.70;;;16.98;;
24145;SDS011;12308;50.948;4.706;2023-02-22T08:34:04;27.58;;;16.38;;
24145;SDS011;12308;50.948;4.706;2023-02-22T08:36:30;28.35;;;16.55;;
24145;SDS011;12308;50.948;4.706;2023-02-22T08:38:58;30.33;;;17.88;;
24145;SDS011;12308;50.948;4.706;2023-02-22T08:41:24;31.50;;;17.85;;
24145;SDS011;12308;50.948;4.706;2023-02-22T08:43:49;29.25;;;16.52;;
24145;SDS011;12308;50.948;4.706;2023-02-22T08:46:15;30.55;;;17.02;;
24145;SDS011;12308;50.948;4.706;2023-02-22T08:48:50;27.42;;;17.00;;
24145;SDS011;12308;50.948;4.706;2023-02-22T08:51:17;31.85;;;17.23;;
24145;SDS011;12308;50.948;4.706;2023-02-22T08:53:43;28.05;;;16.83;;
24145;SDS011;12308;50.948;4.706;2023-02-22T08:56:09;30.35;;;17.85;;
24145;SDS011;12308;50.948;4.706;2023-02-22T08:58:35;25.70;;;16.52;;
24145;SDS011;12308;50.948;4.706;2023-02-22T09:01:01;34.35;;;17.02;;
24145;SDS011;12308;50.948;4.706;2023-02-22T09:03:27;29.05;;;16.60;;
24145;SDS011;12308;50.948;4.706;2023-02-22T09:05:53;24.10;;;15.13;;
24145;SDS011;12308;50.948;4.706;2023-02-22T09:08:19;32.70;;;17.65;;
24145;SDS011;12308;50.948;4.706;2023-02-22T09:10:45;32.08;;;16.48;;
24145;SDS011;12308;50.948;4.706;2023-02-22T09:13:11;29.63;;;16.70;;
24145;SDS011;12308;50.948;4.706;2023-02-22T09:15:37;29.90;;;17.27;;
24145;SDS011;12308;50.948;4.706;2023-02-22T09:18:05;25.58;;;16.52;;
24145;SDS011;12308;50.948;4.706;2023-02-22T09:20:32;34.70;;;16.98;;
24145;SDS011;12308;50.948;4.706;2023-02-22T09:22:59;28.08;;;16.77;;
24145;SDS011;12308;50.948;4.706;2023-02-22T09:25:27;28.75;;;16.55;;
24145;SDS011;12308;50.948;4.706;2023-02-22T09:27:53;54.67;;;20.80;;
24145;SDS011;12308;50.948;4.706;2023-02-22T09:30:24;161.05;;;41.30;;
24145;SDS011;12308;50.948;4.706;2023-02-22T09:32:56;495.30;;;81.38;;
24145;SDS011;12308;50.948;4.706;2023-02-22T09:35:37;81.68;;;26.08;;
24145;SDS011;12308;50.948;4.706;2023-02-22T09:38:06;32.60;;;16.15;;
24145;SDS011;12308;50.948;4.706;2023-02-22T09:40:33;29.98;;;16.33;;
24145;SDS011;12308;50.948;4.706;2023-02-22T09:51:23;32.50;;;16.35;;
24145;SDS011;12308;50.948;4.706;2023-02-22T09:54:03;26.08;;;15.93;;
24145;SDS011;12308;50.948;4.706;2023-02-22T09:56:38;31.75;;;15.75;;
24145;SDS011;12308;50.948;4.706;2023-02-22T09:59:05;32.63;;;16.80;;
24145;SDS011;12308;50.948;4.706;2023-02-22T10:01:44;38.50;;;17.33;;
24145;SDS011;12308;50.948;4.706;2023-02-22T10:06:57;31.60;;;17.42;;
24145;SDS011;12308;50.948;4.706;2023-02-22T10:09:30;31.48;;;16.70;;
24145;SDS011;12308;50.948;4.706;2023-02-22T10:12:07;33.28;;;17.73;;
24145;SDS011;12308;50.948;4.706;2023-02-22T10:14:59;34.63;;;17.95;;
24145;SDS011;12308;50.948;4.706;2023-02-22T10:20:41;34.80;;;17.63;;
24145;SDS011;12308;50.948;4.706;2023-02-22T10:23:23;33.80;;;18.15;;
24145;SDS011;12308;50.948;4.706;2023-02-22T10:31:19;33.90;;;18.58;;
24145;SDS011;12308;50.948;4.706;2023-02-22T10:33:51;32.13;;;17.38;;
24145;SDS011;12308;50.948;4.706;2023-02-22T10:36:38;33.72;;;18.90;;
24145;SDS011;12308;50.948;4.706;2023-02-22T10:42:01;42.40;;;22.05;;
24145;SDS011;12308;50.948;4.706;2023-02-22T10:44:36;86.07;;;36.20;;
24145;SDS011;12308;50.948;4.706;2023-02-22T10:47:07;65.57;;;28.98;;
24145;SDS011;12308;50.948;4.706;2023-02-22T10:49:43;86.93;;;38.08;;
24145;SDS011;12308;50.948;4.706;2023-02-22T10:52:16;65.35;;;30.40;;
24145;SDS011;12308;50.948;4.706;2023-02-22T10:54:47;51.75;;;25.73;;
24145;SDS011;12308;50.948;4.706;2023-02-22T10:57:18;42.63;;;22.60;;
24145;SDS011;12308;50.948;4.706;2023-02-22T10:59:53;41.90;;;20.38;;
24145;SDS011;12308;50.948;4.706;2023-02-22T11:02:31;36.20;;;20.40;;
24145;SDS011;12308;50.948;4.706;2023-02-22T11:05:00;84.88;;;41.42;;
24145;SDS011;12308;50.948;4.706;2023-02-22T11:07:29;54.08;;;27.70;;
24145;SDS011;12308;50.948;4.706;2023-02-22T11:10:04;34.42;;;20.38;;
24145;SDS011;12308;50.948;4.706;2023-02-22T11:12:33;35.83;;;20.48;;
24145;SDS011;12308;50.948;4.706;2023-02-22T11:22:49;39.60;;;20.95;;
24145;SDS011;12308;50.948;4.706;2023-02-22T11:25:19;32.47;;;19.73;;
24145;SDS011;12308;50.948;4.706;2023-02-22T11:27:48;35.65;;;18.92;;
24145;SDS011;12308;50.948;4.706;2023-02-22T11:30:18;37.28;;;19.45;;
24145;SDS011;12308;50.948;4.706;2023-02-22T11:33:37;41.83;;;21.05;;
24145;SDS011;12308;50.948;4.706;2023-02-22T11:38:24;34.63;;;19.10;;
24145;SDS011;12308;50.948;4.706;2023-02-22T11:41:04;41.95;;;21.70;;
24145;SDS011;12308;50.948;4.706;2023-02-22T11:43:30;38.65;;;22.13;;
24145;SDS011;12308;50.948;4.706;2023-02-22T11:48:30;41.20;;;24.60;;
24145;SDS011;12308;50.948;4.706;2023-02-22T11:56:35;48.67;;;28.58;;
24145;SDS011;12308;50.948;4.706;2023-02-22T12:01:57;38.20;;;21.90;;
24145;SDS011;12308;50.948;4.706;2023-02-22T12:15:38;46.55;;;24.77;;
24145;SDS011;12308;50.948;4.706;2023-02-22T12:18:46;45.38;;;28.13;;
24145;SDS011;12308;50.948;4.706;2023-02-22T12:21:21;61.53;;;36.88;;
24145;SDS011;12308;50.948;4.706;2023-02-22T12:26:48;51.50;;;31.33;;
24145;SDS011;12308;50.948;4.706;2023-02-22T12:34:41;55.08;;;33.47;;
24145;SDS011;12308;50.948;4.706;2023-02-22T12:37:20;44.50;;;26.48;;
24145;SDS011;12308;50.948;4.706;2023-02-22T12:40:06;46.42;;;25.92;;
24145;SDS011;12308;50.948;4.706;2023-02-22T12:48:34;52.47;;;30.33;;
24145;SDS011;12308;50.948;4.706;2023-02-22T12:51:13;49.05;;;29.70;;
24145;SDS011;12308;50.948;4.706;2023-02-22T12:53:54;53.58;;;31.35;;
24145;SDS011;12308;50.948;4.706;2023-02-22T12:59:46;45.55;;;26.55;;
24145;SDS011;12308;50.948;4.706;2023-02-22T13:02:18;79.72;;;44.53;;
24145;SDS011;12308;50.948;4.706;2023-02-22T13:04:56;49.72;;;31.13;;
24145;SDS011;12308;50.948;4.706;2023-02-22T13:18:13;75.32;;;48.15;;
24145;SDS011;12308;50.948;4.706;2023-02-22T13:28:37;73.80;;;42.90;;
24145;SDS011;12308;50.948;4.706;2023-02-22T13:34:04;67.00;;;40.10;;
24145;SDS011;12308;50.948;4.706;2023-02-22T13:42:04;61.78;;;39.50;;
24145;SDS011;12308;50.948;4.706;2023-02-22T13:45:07;68.90;;;42.42;;
24145;SDS011;12308;50.948;4.706;2023-02-22T13:53:25;71.72;;;44.17;;
24145;SDS011;12308;50.948;4.706;2023-02-22T13:55:57;91.32;;;52.65;;
24145;SDS011;12308;50.948;4.706;2023-02-22T13:58:25;99.03;;;56.75;;
24145;SDS011;12308;50.948;4.706;2023-02-22T14:01:00;76.97;;;46.47;;
24145;SDS011;12308;50.948;4.706;2023-02-22T14:03:33;78.95;;;44.97;;
24145;SDS011;12308;50.948;4.706;2023-02-22T14:06:06;64.32;;;38.80;;
24145;SDS011;12308;50.948;4.706;2023-02-22T14:11:03;62.72;;;40.00;;
24145;SDS011;12308;50.948;4.706;2023-02-22T14:16:24;66.10;;;39.13;;
24145;SDS011;12308;50.948;4.706;2023-02-22T14:22:00;74.20;;;43.70;;
24145;SDS011;12308;50.948;4.706;2023-02-22T14:24:44;82.10;;;46.90;;
24145;SDS011;12308;50.948;4.706;2023-02-22T14:27:12;71.03;;;43.88;;
24145;SDS011;12308;50.948;4.706;2023-02-22T14:29:50;72.47;;;44.50;;
24145;SDS011;12308;50.948;4.706;2023-02-22T14:32:18;76.60;;;47.55;;
24145;SDS011;12308;50.948;4.706;2023-02-22T14:42:50;74.45;;;46.05;;
24145;SDS011;12308;50.948;4.706;2023-02-22T14:45:25;80.00;;;45.90;;
24145;SDS011;12308;50.948;4.706;2023-02-22T14:48:11;74.25;;;45.90;;
24145;SDS011;12308;50.948;4.706;2023-02-22T14:53:26;84.47;;;47.08;;
24145;SDS011;12308;50.948;4.706;2023-02-22T14:56:16;77.03;;;46.42;;
24145;SDS011;12308;50.948;4.706;2023-02-22T15:01:35;74.97;;;45.83;;
24145;SDS011;12308;50.948;4.706;2023-02-22T15:06:53;75.45;;;45.25;;
24145;SDS011;12308;50.948;4.706;2023-02-22T15:09:21;78.72;;;46.67;;
24145;SDS011;12308;50.948;4.706;2023-02-22T15:11:49;74.70;;;45.95;;
24145;SDS011;12308;50.948;4.706;2023-02-22T15:14:18;80.53;;;47.58;;
24145;SDS011;12308;50.948;4.706;2023-02-22T15:16:49;81.85;;;47.83;;
24145;SDS011;12308;50.948;4.706;2023-02-22T15:19:23;84.25;;;48.15;;
24145;SDS011;12308;50.948;4.706;2023-02-22T15:21:52;87.45;;;53.38;;
24145;SDS011;12308;50.948;4.706;2023-02-22T15:24:24;84.65;;;47.17;;
24145;SDS011;12308;50.948;4.706;2023-02-22T15:27:04;84.53;;;48.15;;
24145;SDS011;12308;50.948;4.706;2023-02-22T15:29:38;92.40;;;52.08;;
24145;SDS011;12308;50.948;4.706;2023-02-22T15:34:54;88.57;;;50.22;;
24145;SDS011;12308;50.948;4.706;2023-02-22T15:37:21;83.32;;;50.70;;
24145;SDS011;12308;50.948;4.706;2023-02-22T15:40:03;89.03;;;52.00;;
24145;SDS011;12308;50.948;4.706;2023-02-22T15:42:48;92.97;;;52.17;;
24145;SDS011;12308;50.948;4.706;2023-02-22T15:45:22;89.65;;;52.40;;
24145;SDS011;12308;50.948;4.706;2023-02-22T15:47:50;95.90;;;54.53;;
24145;SDS011;12308;50.948;4.706;2023-02-22T15:52:53;93.80;;;53.70;;
24145;SDS011;12308;50.948;4.706;2023-02-22T15:55:31;102.57;;;56.47;;
24145;SDS011;12308;50.948;4.706;2023-02-22T15:58:10;98.70;;;55.42;;
24145;SDS011;12308;50.948;4.706;2023-02-22T16:00:37;102.88;;;57.85;;
24145;SDS011;12308;50.948;4.706;2023-02-22T16:03:12;95.72;;;56.67;;
24145;SDS011;12308;50.948;4.706;2023-02-22T16:05:41;102.25;;;57.95;;
24145;SDS011;12308;50.948;4.706;2023-02-22T16:08:31;104.68;;;57.50;;
24145;SDS011;12308;50.948;4.706;2023-02-22T16:11:30;96.45;;;55.10;;
24145;SDS011;12308;50.948;4.706;2023-02-22T16:13:59;100.95;;;54.80;;
24145;SDS011;12308;50.948;4.706;2023-02-22T16:16:29;110.38;;;58.55;;
24145;SDS011;12308;50.948;4.706;2023-02-22T16:22:03;98.45;;;55.20;;
24145;SDS011;12308;50.948;4.706;2023-02-22T16:24:37;97.40;;;53.72;;
24145;SDS011;12308;50.948;4.706;2023-02-22T16:29:39;112.90;;;59.92;;
24145;SDS011;12308;50.948;4.706;2023-02-22T16:32:05;109.57;;;58.13;;
24145;SDS011;12308;50.948;4.706;2023-02-22T16:34:31;110.72;;;60.20;;
24145;SDS011;12308;50.948;4.706;2023-02-22T16:36:56;103.05;;;59.05;;
24145;SDS011;12308;50.948;4.706;2023-02-22T16:39:27;108.18;;;55.40;;
24145;SDS011;12308;50.948;4.706;2023-02-22T16:41:55;110.90;;;58.70;;
24145;SDS011;12308;50.948;4.706;2023-02-22T16:44:26;109.93;;;57.70;;
24145;SDS011;12308;50.948;4.706;2023-02-22T16:46:56;104.90;;;55.97;;
24145;SDS011;12308;50.948;4.706;2023-02-22T16:51:52;99.50;;;55.00;;
24145;SDS011;12308;50.948;4.706;2023-02-22T16:54:27;111.57;;;56.42;;
24145;SDS011;12308;50.948;4.706;2023-02-22T16:56:54;106.03;;;56.90;;
24145;SDS011;12308;50.948;4.706;2023-02-22T16:59:21;106.85;;;56.15;;
24145;SDS011;12308;50.948;4.706;2023-02-22T17:01:47;110.88;;;58.55;;
24145;SDS011;12308;50.948;4.706;2023-02-22T17:04:17;116.55;;;56.80;;
24145;SDS011;12308;50.948;4.706;2023-02-22T17:06:45;112.40;;;56.78;;
24145;SDS011;12308;50.948;4.706;2023-02-22T17:09:11;111.80;;;56.63;;
24145;SDS011;12308;50.948;4.706;2023-02-22T17:11:39;107.95;;;52.83;;
24145;SDS011;12308;50.948;4.706;2023-02-22T17:14:05;106.00;;;54.45;;
24145;SDS011;12308;50.948;4.706;2023-02-22T17:16:31;103.40;;;52.80;;
24145;SDS011;12308;50.948;4.706;2023-02-22T17:18:57;106.68;;;54.10;;
24145;SDS011;12308;50.948;4.706;2023-02-22T17:21:22;101.28;;;50.97;;
24145;SDS011;12308;50.948;4.706;2023-02-22T17:23:48;100.03;;;49.45;;
24145;SDS011;12308;50.948;4.706;2023-02-22T17:26:14;98.15;;;48.15;;
24145;SDS011;12308;50.948;4.706;2023-02-22T17:28:41;94.60;;;48.10;;
24145;SDS011;12308;50.948;4.706;2023-02-22T17:31:29;97.90;;;48.28;;
24145;SDS011;12308;50.948;4.706;2023-02-22T17:33:55;96.65;;;48.78;;